sensor_id;sensor_type;location;lat;lon;timestamp;temperature;humidity
26907;DHT22;14472;56.880;16.658;2023-07-22T00:00:16;17.20;1.00
26907;DHT22;14472;56.880;16.658;2023-07-22T00:02:42;17.20;1.00
26907;DHT22;14472;56.880;16.658;2023-07-22T00:05:09;17.20;1.00
26907;DHT22;14472;56.880;16.658;2023-07-22T00:07:36;17.20;1.00
26907;DHT22;14472;56.880;16.658;2023-07-22T00:10:02;17.10;1.00
26907;DHT22;14472;56.880;16.658;2023-07-22T00:12:29;17.10;1.00
26907;DHT22;14472;56.880;16.658;2023-07-22T00:14:56;17.00;1.00
26907;DHT22;14472;56.880;16.658;2023-07-22T00:17:21;17.00;1.00
26907;DHT22;14472;56.880;16.658;2023-07-22T00:19:47;17.00;1.00
26907;DHT22;14472;56.880;16.658;2023-07-22T00:22:14;17.00;1.00
26907;DHT22;14472;56.880;16.658;2023-07-22T00:24:41;17.00;1.00
26907;DHT22;14472;56.880;16.658;2023-07-22T00:27:06;17.00;1.00
26907;DHT22;14472;56.880;16.658;2023-07-22T00:29:34;16.90;1.00
26907;DHT22;14472;56.880;16.658;2023-07-22T00:32:00;16.90;1.00
26907;DHT22;14472;56.880;16.658;2023-07-22T00:34:26;16.90;1.00
26907;DHT22;14472;56.880;16.658;2023-07-22T00:36:52;16.80;1.00
26907;DHT22;14472;56.880;16.658;2023-07-22T00:39:18;16.80;1.00
26907;DHT22;14472;56.880;16.658;2023-07-22T00:41:43;16.80;1.00
26907;DHT22;14472;56.880;16.658;2023-07-22T00:44:12;16.70;1.00
26907;DHT22;14472;56.880;16.658;2023-07-22T00:46:39;16.70;1.00
26907;DHT22;14472;56.880;16.658;2023-07-22T00:49:06;16.80;1.00
26907;DHT22;14472;56.880;16.658;2023-07-22T00:51:33;16.80;1.00
26907;DHT22;14472;56.880;16.658;2023-07-22T00:53:58;16.70;1.00
26907;DHT22;14472;56.880;16.658;2023-07-22T00:56:25;16.70;1.00
26907;DHT22;14472;56.880;16.658;2023-07-22T00:58:56;16.70;1.00
26907;DHT22;14472;56.880;16.658;2023-07-22T01:01:21;16.70;1.00
26907;DHT22;14472;56.880;16.658;2023-07-22T01:03:47;16.70;1.00
26907;DHT22;14472;56.880;16.658;2023-07-22T01:06:14;16.70;1.00
26907;DHT22;14472;56.880;16.658;2023-07-22T01:08:40;16.60;1.00
26907;DHT22;14472;56.880;16.658;2023-07-22T01:11:06;16.60;1.00
26907;DHT22;14472;56.880;16.658;2023-07-22T01:13:31;16.60;1.00
26907;DHT22;14472;56.880;16.658;2023-07-22T01:15:58;16.50;1.00
26907;DHT22;14472;56.880;16.658;2023-07-22T01:18:27;16.60;1.00
26907;DHT22;14472;56.880;16.658;2023-07-22T01:20:55;16.60;1.00
26907;DHT22;14472;56.880;16.658;2023-07-22T01:23:21;16.60;1.00
26907;DHT22;14472;56.880;16.658;2023-07-22T01:25:47;16.50;1.00
26907;DHT22;14472;56.880;16.658;2023-07-22T01:28:13;16.50;1.00
26907;DHT22;14472;56.880;16.658;2023-07-22T01:30:39;16.50;1.00
26907;DHT22;14472;56.880;16.658;2023-07-22T01:33:05;16.50;1.00
26907;DHT22;14472;56.880;16.658;2023-07-22T01:35:31;16.50;1.00
26907;DHT22;14472;56.880;16.658;2023-07-22T01:37:56;16.40;1.00
26907;DHT22;14472;56.880;16.658;2023-07-22T01:40:24;16.40;1.00
26907;DHT22;14472;56.880;16.658;2023-07-22T01:42:50;16.40;1.00
26907;DHT22;14472;56.880;16.658;2023-07-22T01:45:16;16.40;1.00
26907;DHT22;14472;56.880;16.658;2023-07-22T01:47:41;16.40;1.00
26907;DHT22;14472;56.880;16.658;2023-07-22T01:50:07;16.40;1.00
26907;DHT22;14472;56.880;16.658;2023-07-22T01:52:34;16.30;1.00
26907;DHT22;14472;56.880;16.658;2023-07-22T01:55:00;16.30;1.00
26907;DHT22;14472;56.880;16.658;2023-07-22T01:57:26;16.20;1.00
26907;DHT22;14472;56.880;16.658;2023-07-22T01:59:51;16.10;1.00
26907;DHT22;14472;56.880;16.658;2023-07-22T02:02:18;16.10;1.00
26907;DHT22;14472;56.880;16.658;2023-07-22T02:04:44;16.10;1.00
26907;DHT22;14472;56.880;16.658;2023-07-22T02:07:10;16.10;1.00
26907;DHT22;14472;56.880;16.658;2023-07-22T02:09:36;16.00;1.00
26907;DHT22;14472;56.880;16.658;2023-07-22T02:12:02;16.00;1.00
26907;DHT22;14472;56.880;16.658;2023-07-22T02:14:28;15.90;1.00
26907;DHT22;14472;56.880;16.658;2023-07-22T02:16:53;15.80;1.00
26907;DHT22;14472;56.880;16.658;2023-07-22T02:19:19;15.80;1.00
26907;DHT22;14472;56.880;16.658;2023-07-22T02:21:45;15.80;1.00
26907;DHT22;14472;56.880;16.658;2023-07-22T02:24:13;15.60;1.00
26907;DHT22;14472;56.880;16.658;2023-07-22T02:26:39;15.50;1.00
26907;DHT22;14472;56.880;16.658;2023-07-22T02:29:04;15.50;1.00
26907;DHT22;14472;56.880;16.658;2023-07-22T02:31:30;15.40;1.00
26907;DHT22;14472;56.880;16.658;2023-07-22T02:33:56;15.50;1.00
26907;DHT22;14472;56.880;16.658;2023-07-22T02:36:22;15.40;1.00
26907;DHT22;14472;56.880;16.658;2023-07-22T02:38:47;15.40;1.00
26907;DHT22;14472;56.880;16.658;2023-07-22T02:41:13;15.40;1.00
26907;DHT22;14472;56.880;16.658;2023-07-22T02:43:39;15.40;1.00
26907;DHT22;14472;56.880;16.658;2023-07-22T02:46:06;15.30;1.00
26907;DHT22;14472;56.880;16.658;2023-07-22T02:48:34;15.30;1.00
26907;DHT22;14472;56.880;16.658;2023-07-22T02:51:06;15.20;1.00
26907;DHT22;14472;56.880;16.658;2023-07-22T02:53:34;15.10;1.00
26907;DHT22;14472;56.880;16.658;2023-07-22T02:56:00;15.00;1.00
26907;DHT22;14472;56.880;16.658;2023-07-22T02:58:26;15.10;1.00
26907;DHT22;14472;56.880;16.658;2023-07-22T03:00:52;15.00;1.00
26907;DHT22;14472;56.880;16.658;2023-07-22T03:03:17;14.90;1.00
26907;DHT22;14472;56.880;16.658;2023-07-22T03:05:44;14.90;1.00
26907;DHT22;14472;56.880;16.658;2023-07-22T03:08:10;14.90;1.00
26907;DHT22;14472;56.880;16.658;2023-07-22T03:10:36;14.90;1.00
26907;DHT22;14472;56.880;16.658;2023-07-22T03:13:02;14.90;1.00
26907;DHT22;14472;56.880;16.658;2023-07-22T03:15:28;14.90;1.00
26907;DHT22;14472;56.880;16.658;2023-07-22T03:17:55;14.80;1.00
26907;DHT22;14472;56.880;16.658;2023-07-22T03:20:21;14.90;1.00
26907;DHT22;14472;56.880;16.658;2023-07-22T03:22:48;14.80;1.00
26907;DHT22;14472;56.880;16.658;2023-07-22T03:25:15;14.80;1.00
26907;DHT22;14472;56.880;16.658;2023-07-22T03:27:43;14.80;1.00
26907;DHT22;14472;56.880;16.658;2023-07-22T03:30:15;14.70;1.00
26907;DHT22;14472;56.880;16.658;2023-07-22T03:32:45;14.80;1.00
26907;DHT22;14472;56.880;16.658;2023-07-22T03:35:11;14.80;1.00
26907;DHT22;14472;56.880;16.658;2023-07-22T03:37:53;14.90;1.00
26907;DHT22;14472;56.880;16.658;2023-07-22T03:40:27;14.80;1.00
26907;DHT22;14472;56.880;16.658;2023-07-22T03:42:57;14.90;1.00
26907;DHT22;14472;56.880;16.658;2023-07-22T03:45:23;14.90;1.00
26907;DHT22;14472;56.880;16.658;2023-07-22T03:47:57;14.90;1.00
26907;DHT22;14472;56.880;16.658;2023-07-22T03:50:29;14.80;1.00
26907;DHT22;14472;56.880;16.658;2023-07-22T03:52:55;14.80;1.00
26907;DHT22;14472;56.880;16.658;2023-07-22T03:55:21;14.80;1.00
26907;DHT22;14472;56.880;16.658;2023-07-22T03:57:47;14.80;1.00
26907;DHT22;14472;56.880;16.658;2023-07-22T04:00:13;14.80;1.00
26907;DHT22;14472;56.880;16.658;2023-07-22T04:02:38;14.90;1.00
26907;DHT22;14472;56.880;16.658;2023-07-22T04:05:04;14.80;1.00
26907;DHT22;14472;56.880;16.658;2023-07-22T04:07:30;14.80;1.00
26907;DHT22;14472;56.880;16.658;2023-07-22T04:09:56;14.90;1.00
26907;DHT22;14472;56.880;16.658;2023-07-22T04:12:23;14.90;1.00
26907;DHT22;14472;56.880;16.658;2023-07-22T04:14:48;14.90;1.00
26907;DHT22;14472;56.880;16.658;2023-07-22T04:17:14;15.00;1.00
26907;DHT22;14472;56.880;16.658;2023-07-22T04:19:41;15.10;1.00
26907;DHT22;14472;56.880;16.658;2023-07-22T04:22:08;15.10;1.00
26907;DHT22;14472;56.880;16.658;2023-07-22T04:24:33;15.10;1.00
26907;DHT22;14472;56.880;16.658;2023-07-22T04:27:00;15.20;1.00
26907;DHT22;14472;56.880;16.658;2023-07-22T04:29:26;15.20;1.00
26907;DHT22;14472;56.880;16.658;2023-07-22T04:31:57;15.30;1.00
26907;DHT22;14472;56.880;16.658;2023-07-22T04:34:23;15.30;1.00
26907;DHT22;14472;56.880;16.658;2023-07-22T04:36:51;15.30;1.00
26907;DHT22;14472;56.880;16.658;2023-07-22T04:39:16;15.30;1.00
26907;DHT22;14472;56.880;16.658;2023-07-22T04:41:43;15.40;1.00
26907;DHT22;14472;56.880;16.658;2023-07-22T04:44:08;15.40;1.00
26907;DHT22;14472;56.880;16.658;2023-07-22T04:46:34;15.50;1.00
26907;DHT22;14472;56.880;16.658;2023-07-22T04:49:01;15.50;1.00
26907;DHT22;14472;56.880;16.658;2023-07-22T04:51:26;15.60;1.00
26907;DHT22;14472;56.880;16.658;2023-07-22T04:53:52;15.60;1.00
26907;DHT22;14472;56.880;16.658;2023-07-22T04:56:18;15.60;1.00
26907;DHT22;14472;56.880;16.658;2023-07-22T04:58:44;15.70;1.00
26907;DHT22;14472;56.880;16.658;2023-07-22T05:01:09;15.70;1.00
26907;DHT22;14472;56.880;16.658;2023-07-22T05:03:35;15.80;1.00
26907;DHT22;14472;56.880;16.658;2023-07-22T05:06:01;15.80;1.00
26907;DHT22;14472;56.880;16.658;2023-07-22T05:08:27;15.90;1.00
26907;DHT22;14472;56.880;16.658;2023-07-22T05:10:53;16.00;1.00
26907;DHT22;14472;56.880;16.658;2023-07-22T05:13:19;16.00;1.00
26907;DHT22;14472;56.880;16.658;2023-07-22T05:15:44;16.10;1.00
26907;DHT22;14472;56.880;16.658;2023-07-22T05:18:10;16.20;1.00
26907;DHT22;14472;56.880;16.658;2023-07-22T05:20:38;16.20;1.00
26907;DHT22;14472;56.880;16.658;2023-07-22T05:23:04;16.30;1.00
26907;DHT22;14472;56.880;16.658;2023-07-22T05:25:30;16.30;1.00
26907;DHT22;14472;56.880;16.658;2023-07-22T05:27:55;16.40;1.00
26907;DHT22;14472;56.880;16.658;2023-07-22T05:30:21;16.40;1.00
26907;DHT22;14472;56.880;16.658;2023-07-22T05:32:47;16.50;1.00
26907;DHT22;14472;56.880;16.658;2023-07-22T05:35:13;16.60;1.00
26907;DHT22;14472;56.880;16.658;2023-07-22T05:37:38;16.60;1.00
26907;DHT22;14472;56.880;16.658;2023-07-22T05:40:05;16.70;1.00
26907;DHT22;14472;56.880;16.658;2023-07-22T05:42:32;16.70;1.00
26907;DHT22;14472;56.880;16.658;2023-07-22T05:44:58;16.80;1.00
26907;DHT22;14472;56.880;16.658;2023-07-22T05:47:25;16.90;1.00
26907;DHT22;14472;56.880;16.658;2023-07-22T05:49:51;16.90;1.00
26907;DHT22;14472;56.880;16.658;2023-07-22T05:52:17;17.00;1.00
26907;DHT22;14472;56.880;16.658;2023-07-22T05:54:43;17.10;1.00
26907;DHT22;14472;56.880;16.658;2023-07-22T05:57:09;17.10;1.00
26907;DHT22;14472;56.880;16.658;2023-07-22T05:59:34;17.20;1.00
26907;DHT22;14472;56.880;16.658;2023-07-22T06:02:03;17.30;1.00
26907;DHT22;14472;56.880;16.658;2023-07-22T06:04:28;17.30;1.00
26907;DHT22;14472;56.880;16.658;2023-07-22T06:06:54;17.40;1.00
26907;DHT22;14472;56.880;16.658;2023-07-22T06:09:20;17.40;1.00
26907;DHT22;14472;56.880;16.658;2023-07-22T06:11:46;17.40;1.00
26907;DHT22;14472;56.880;16.658;2023-07-22T06:14:12;17.50;1.00
26907;DHT22;14472;56.880;16.658;2023-07-22T06:16:38;17.50;1.00
26907;DHT22;14472;56.880;16.658;2023-07-22T06:19:04;17.60;1.00
26907;DHT22;14472;56.880;16.658;2023-07-22T06:21:30;17.60;1.00
26907;DHT22;14472;56.880;16.658;2023-07-22T06:23:55;17.60;1.00
26907;DHT22;14472;56.880;16.658;2023-07-22T06:26:21;17.60;1.00
26907;DHT22;14472;56.880;16.658;2023-07-22T06:28:47;17.70;1.00
26907;DHT22;14472;56.880;16.658;2023-07-22T06:31:13;17.70;1.00
26907;DHT22;14472;56.880;16.658;2023-07-22T06:33:39;17.70;1.00
26907;DHT22;14472;56.880;16.658;2023-07-22T06:36:04;17.70;1.00
26907;DHT22;14472;56.880;16.658;2023-07-22T06:38:30;17.70;1.00
26907;DHT22;14472;56.880;16.658;2023-07-22T06:40:56;17.70;1.00
26907;DHT22;14472;56.880;16.658;2023-07-22T06:43:22;17.80;1.00
26907;DHT22;14472;56.880;16.658;2023-07-22T06:45:48;17.80;1.00
26907;DHT22;14472;56.880;16.658;2023-07-22T06:48:14;17.80;1.00
26907;DHT22;14472;56.880;16.658;2023-07-22T06:50:40;17.80;1.00
26907;DHT22;14472;56.880;16.658;2023-07-22T06:53:06;17.80;1.00
26907;DHT22;14472;56.880;16.658;2023-07-22T06:55:31;17.80;1.00
26907;DHT22;14472;56.880;16.658;2023-07-22T06:57:57;17.90;1.00
26907;DHT22;14472;56.880;16.658;2023-07-22T07:00:23;17.90;1.00
26907;DHT22;14472;56.880;16.658;2023-07-22T07:02:50;17.80;1.00
26907;DHT22;14472;56.880;16.658;2023-07-22T07:05:15;17.80;1.00
26907;DHT22;14472;56.880;16.658;2023-07-22T07:07:42;17.80;1.00
26907;DHT22;14472;56.880;16.658;2023-07-22T07:10:08;17.80;1.00
26907;DHT22;14472;56.880;16.658;2023-07-22T07:12:34;17.80;1.00
26907;DHT22;14472;56.880;16.658;2023-07-22T07:15:01;17.70;1.00
26907;DHT22;14472;56.880;16.658;2023-07-22T07:17:27;17.70;1.00
26907;DHT22;14472;56.880;16.658;2023-07-22T07:19:52;17.70;1.00
26907;DHT22;14472;56.880;16.658;2023-07-22T07:22:18;17.70;1.00
26907;DHT22;14472;56.880;16.658;2023-07-22T07:24:44;17.80;1.00
26907;DHT22;14472;56.880;16.658;2023-07-22T07:27:09;17.70;1.00
26907;DHT22;14472;56.880;16.658;2023-07-22T07:29:35;17.70;1.00
26907;DHT22;14472;56.880;16.658;2023-07-22T07:32:01;17.70;1.00
26907;DHT22;14472;56.880;16.658;2023-07-22T07:34:27;17.60;1.00
26907;DHT22;14472;56.880;16.658;2023-07-22T07:36:52;17.60;1.00
26907;DHT22;14472;56.880;16.658;2023-07-22T07:39:18;17.60;1.00
26907;DHT22;14472;56.880;16.658;2023-07-22T07:41:44;17.60;11.60
26907;DHT22;14472;56.880;16.658;2023-07-22T07:44:10;17.50;10.50
26907;DHT22;14472;56.880;16.658;2023-07-22T07:46:35;17.50;10.60
26907;DHT22;14472;56.880;16.658;2023-07-22T07:49:01;17.40;10.50
26907;DHT22;14472;56.880;16.658;2023-07-22T07:51:30;17.50;10.50
26907;DHT22;14472;56.880;16.658;2023-07-22T07:53:56;17.50;6.80
26907;DHT22;14472;56.880;16.658;2023-07-22T07:56:22;17.50;8.00
26907;DHT22;14472;56.880;16.658;2023-07-22T07:58:50;17.50;7.20
26907;DHT22;14472;56.880;16.658;2023-07-22T08:01:16;17.40;11.10
26907;DHT22;14472;56.880;16.658;2023-07-22T08:03:43;17.40;9.00
26907;DHT22;14472;56.880;16.658;2023-07-22T08:06:12;17.40;10.50
26907;DHT22;14472;56.880;16.658;2023-07-22T08:08:38;17.40;8.90
26907;DHT22;14472;56.880;16.658;2023-07-22T08:11:08;17.30;5.80
26907;DHT22;14472;56.880;16.658;2023-07-22T08:13:35;17.40;10.40
26907;DHT22;14472;56.880;16.658;2023-07-22T08:16:06;17.30;14.10
26907;DHT22;14472;56.880;16.658;2023-07-22T08:18:33;17.30;10.40
26907;DHT22;14472;56.880;16.658;2023-07-22T08:21:01;17.20;13.40
26907;DHT22;14472;56.880;16.658;2023-07-22T08:23:28;17.20;21.10
26907;DHT22;14472;56.880;16.658;2023-07-22T08:25:54;17.20;19.40
26907;DHT22;14472;56.880;16.658;2023-07-22T08:28:20;17.20;14.60
26907;DHT22;14472;56.880;16.658;2023-07-22T08:30:47;17.20;6.50
26907;DHT22;14472;56.880;16.658;2023-07-22T08:33:14;17.10;5.40
26907;DHT22;14472;56.880;16.658;2023-07-22T08:35:40;17.20;10.30
26907;DHT22;14472;56.880;16.658;2023-07-22T08:38:07;17.10;9.60
26907;DHT22;14472;56.880;16.658;2023-07-22T08:40:37;17.10;8.20
26907;DHT22;14472;56.880;16.658;2023-07-22T08:43:04;17.10;10.20
26907;DHT22;14472;56.880;16.658;2023-07-22T08:45:32;17.10;5.40
26907;DHT22;14472;56.880;16.658;2023-07-22T08:48:06;17.10;14.90
26907;DHT22;14472;56.880;16.658;2023-07-22T08:51:30;17.10;7.60
26907;DHT22;14472;56.880;16.658;2023-07-22T08:53:31;17.10;10.20
26907;DHT22;14472;56.880;16.658;2023-07-22T08:56:00;17.20;10.30
26907;DHT22;14472;56.880;16.658;2023-07-22T08:58:27;17.20;7.00
26907;DHT22;14472;56.880;16.658;2023-07-22T09:00:54;17.20;8.00
26907;DHT22;14472;56.880;16.658;2023-07-22T09:03:20;17.20;7.10
26907;DHT22;14472;56.880;16.658;2023-07-22T09:05:46;17.20;1.00
26907;DHT22;14472;56.880;16.658;2023-07-22T09:08:13;17.20;10.30
26907;DHT22;14472;56.880;16.658;2023-07-22T09:10:39;17.20;19.10
26907;DHT22;14472;56.880;16.658;2023-07-22T09:13:05;17.30;21.20
26907;DHT22;14472;56.880;16.658;2023-07-22T09:15:35;17.30;21.20
26907;DHT22;14472;56.880;16.658;2023-07-22T09:18:02;17.30;16.50
26907;DHT22;14472;56.880;16.658;2023-07-22T09:20:28;17.30;21.20
26907;DHT22;14472;56.880;16.658;2023-07-22T09:22:55;17.40;20.00
26907;DHT22;14472;56.880;16.658;2023-07-22T09:25:22;17.40;18.90
26907;DHT22;14472;56.880;16.658;2023-07-22T09:27:52;17.40;19.60
26907;DHT22;14472;56.880;16.658;2023-07-22T09:32:53;17.60;19.80
26907;DHT22;14472;56.880;16.658;2023-07-22T09:35:20;17.60;22.00
26907;DHT22;14472;56.880;16.658;2023-07-22T09:37:46;17.70;18.20
26907;DHT22;14472;56.880;16.658;2023-07-22T09:42:53;17.80;11.60
26907;DHT22;14472;56.880;16.658;2023-07-22T09:45:20;17.90;9.50
26907;DHT22;14472;56.880;16.658;2023-07-22T09:47:48;18.00;1.00
26907;DHT22;14472;56.880;16.658;2023-07-22T09:50:17;18.00;1.00
26907;DHT22;14472;56.880;16.658;2023-07-22T09:52:49;18.10;1.00
26907;DHT22;14472;56.880;16.658;2023-07-22T09:55:20;18.20;1.00
26907;DHT22;14472;56.880;16.658;2023-07-22T09:57:49;18.20;1.00
26907;DHT22;14472;56.880;16.658;2023-07-22T10:00:16;18.30;1.00
26907;DHT22;14472;56.880;16.658;2023-07-22T10:02:45;18.30;1.00
26907;DHT22;14472;56.880;16.658;2023-07-22T10:05:16;18.40;1.00
26907;DHT22;14472;56.880;16.658;2023-07-22T10:07:54;18.50;1.00
26907;DHT22;14472;56.880;16.658;2023-07-22T10:10:33;18.60;1.00
26907;DHT22;14472;56.880;16.658;2023-07-22T10:13:00;18.60;1.00
26907;DHT22;14472;56.880;16.658;2023-07-22T10:15:29;18.70;1.00
26907;DHT22;14472;56.880;16.658;2023-07-22T10:17:56;18.80;1.00
26907;DHT22;14472;56.880;16.658;2023-07-22T10:20:23;18.80;1.00
26907;DHT22;14472;56.880;16.658;2023-07-22T10:22:50;18.80;1.00
26907;DHT22;14472;56.880;16.658;2023-07-22T10:25:18;18.90;1.00
26907;DHT22;14472;56.880;16.658;2023-07-22T10:27:46;18.90;1.00
26907;DHT22;14472;56.880;16.658;2023-07-22T10:30:13;18.80;1.00
26907;DHT22;14472;56.880;16.658;2023-07-22T10:32:47;18.90;1.00
26907;DHT22;14472;56.880;16.658;2023-07-22T10:37:47;18.90;1.00
26907;DHT22;14472;56.880;16.658;2023-07-22T10:40:26;18.90;1.00
26907;DHT22;14472;56.880;16.658;2023-07-22T10:43:00;18.90;1.00
26907;DHT22;14472;56.880;16.658;2023-07-22T10:45:49;19.00;1.00
26907;DHT22;14472;56.880;16.658;2023-07-22T10:48:15;19.10;1.00
26907;DHT22;14472;56.880;16.658;2023-07-22T10:50:47;19.10;1.00
26907;DHT22;14472;56.880;16.658;2023-07-22T11:06:59;19.30;1.00
26907;DHT22;14472;56.880;16.658;2023-07-22T11:12:08;19.50;1.00
26907;DHT22;14472;56.880;16.658;2023-07-22T11:14:50;19.50;1.00
26907;DHT22;14472;56.880;16.658;2023-07-22T11:17:17;19.60;1.00
26907;DHT22;14472;56.880;16.658;2023-07-22T11:19:44;19.60;1.00
26907;DHT22;14472;56.880;16.658;2023-07-22T11:22:10;19.60;1.00
26907;DHT22;14472;56.880;16.658;2023-07-22T11:24:36;19.60;1.00
26907;DHT22;14472;56.880;16.658;2023-07-22T11:27:05;19.60;1.00
26907;DHT22;14472;56.880;16.658;2023-07-22T11:29:31;19.70;1.00
26907;DHT22;14472;56.880;16.658;2023-07-22T11:31:57;19.70;1.00
26907;DHT22;14472;56.880;16.658;2023-07-22T11:34:24;19.80;1.00
26907;DHT22;14472;56.880;16.658;2023-07-22T11:36:51;19.80;1.00
26907;DHT22;14472;56.880;16.658;2023-07-22T11:39:19;19.90;1.00
26907;DHT22;14472;56.880;16.658;2023-07-22T11:41:46;19.90;1.00
26907;DHT22;14472;56.880;16.658;2023-07-22T11:44:15;19.90;1.00
26907;DHT22;14472;56.880;16.658;2023-07-22T11:49:26;19.90;1.00
26907;DHT22;14472;56.880;16.658;2023-07-22T11:52:07;19.80;1.00
26907;DHT22;14472;56.880;16.658;2023-07-22T11:54:43;19.70;1.00
26907;DHT22;14472;56.880;16.658;2023-07-22T11:57:23;19.60;1.00
26907;DHT22;14472;56.880;16.658;2023-07-22T11:59:53;19.60;1.00
26907;DHT22;14472;56.880;16.658;2023-07-22T12:02:24;19.40;1.00
26907;DHT22;14472;56.880;16.658;2023-07-22T12:05:01;19.30;1.00
26907;DHT22;14472;56.880;16.658;2023-07-22T12:07:34;19.20;1.00
26907;DHT22;14472;56.880;16.658;2023-07-22T12:10:02;19.20;1.00
26907;DHT22;14472;56.880;16.658;2023-07-22T12:12:40;19.10;1.00
26907;DHT22;14472;56.880;16.658;2023-07-22T12:15:19;19.10;1.00
26907;DHT22;14472;56.880;16.658;2023-07-22T12:17:48;19.00;1.00
26907;DHT22;14472;56.880;16.658;2023-07-22T12:20:16;18.90;1.00
26907;DHT22;14472;56.880;16.658;2023-07-22T12:22:42;18.80;1.00
26907;DHT22;14472;56.880;16.658;2023-07-22T12:25:10;18.60;1.00
26907;DHT22;14472;56.880;16.658;2023-07-22T12:27:37;18.40;1.00
26907;DHT22;14472;56.880;16.658;2023-07-22T12:30:04;18.30;1.00
26907;DHT22;14472;56.880;16.658;2023-07-22T12:32:31;18.20;1.00
26907;DHT22;14472;56.880;16.658;2023-07-22T12:34:56;18.10;1.00
26907;DHT22;14472;56.880;16.658;2023-07-22T12:37:22;18.00;1.00
26907;DHT22;14472;56.880;16.658;2023-07-22T12:39:48;18.00;8.80
26907;DHT22;14472;56.880;16.658;2023-07-22T12:42:14;18.00;17.20
26907;DHT22;14472;56.880;16.658;2023-07-22T12:44:39;18.00;16.30
26907;DHT22;14472;56.880;16.658;2023-07-22T12:47:05;18.00;21.60
26907;DHT22;14472;56.880;16.658;2023-07-22T12:49:31;18.00;32.50
26907;DHT22;14472;56.880;16.658;2023-07-22T12:51:57;18.00;33.30
26907;DHT22;14472;56.880;16.658;2023-07-22T12:54:29;18.00;32.50
26907;DHT22;14472;56.880;16.658;2023-07-22T12:56:56;18.00;45.50
26907;DHT22;14472;56.880;16.658;2023-07-22T12:59:22;18.00;57.20
26907;DHT22;14472;56.880;16.658;2023-07-22T13:01:48;18.00;68.00
26907;DHT22;14472;56.880;16.658;2023-07-22T13:04:14;18.00;73.50
26907;DHT22;14472;56.880;16.658;2023-07-22T13:06:39;18.00;85.60
26907;DHT22;14472;56.880;16.658;2023-07-22T13:09:05;17.90;71.60
26907;DHT22;14472;56.880;16.658;2023-07-22T13:11:31;17.90;61.10
26907;DHT22;14472;56.880;16.658;2023-07-22T13:13:56;17.90;62.60
26907;DHT22;14472;56.880;16.658;2023-07-22T13:16:22;17.90;45.30
26907;DHT22;14472;56.880;16.658;2023-07-22T13:18:48;17.90;18.30
26907;DHT22;14472;56.880;16.658;2023-07-22T13:21:13;17.90;23.60
26907;DHT22;14472;56.880;16.658;2023-07-22T13:23:39;18.00;32.50
26907;DHT22;14472;56.880;16.658;2023-07-22T13:26:05;18.00;32.50
26907;DHT22;14472;56.880;16.658;2023-07-22T13:28:31;18.10;25.50
26907;DHT22;14472;56.880;16.658;2023-07-22T13:30:57;18.10;21.70
26907;DHT22;14472;56.880;16.658;2023-07-22T13:33:22;18.20;20.00
26907;DHT22;14472;56.880;16.658;2023-07-22T13:35:48;18.20;7.70
26907;DHT22;14472;56.880;16.658;2023-07-22T13:38:16;18.30;1.00
26907;DHT22;14472;56.880;16.658;2023-07-22T13:40:41;18.40;1.00
26907;DHT22;14472;56.880;16.658;2023-07-22T13:43:07;18.40;1.00
26907;DHT22;14472;56.880;16.658;2023-07-22T13:45:34;18.40;1.00
26907;DHT22;14472;56.880;16.658;2023-07-22T13:48:00;18.40;1.00
26907;DHT22;14472;56.880;16.658;2023-07-22T13:50:26;18.50;1.00
26907;DHT22;14472;56.880;16.658;2023-07-22T13:52:52;18.60;1.00
26907;DHT22;14472;56.880;16.658;2023-07-22T13:55:18;18.60;1.00
26907;DHT22;14472;56.880;16.658;2023-07-22T13:57:44;18.70;1.00
26907;DHT22;14472;56.880;16.658;2023-07-22T14:00:10;18.70;1.00
26907;DHT22;14472;56.880;16.658;2023-07-22T14:02:37;18.80;1.00
26907;DHT22;14472;56.880;16.658;2023-07-22T14:05:03;18.90;1.00
26907;DHT22;14472;56.880;16.658;2023-07-22T14:07:29;19.00;1.00
26907;DHT22;14472;56.880;16.658;2023-07-22T14:09:55;19.00;1.00
26907;DHT22;14472;56.880;16.658;2023-07-22T14:12:21;19.10;1.00
26907;DHT22;14472;56.880;16.658;2023-07-22T14:14:47;19.20;1.00
26907;DHT22;14472;56.880;16.658;2023-07-22T14:17:13;19.20;1.00
26907;DHT22;14472;56.880;16.658;2023-07-22T14:19:39;19.20;1.00
26907;DHT22;14472;56.880;16.658;2023-07-22T14:22:05;19.30;1.00
26907;DHT22;14472;56.880;16.658;2023-07-22T14:24:30;19.40;1.00
26907;DHT22;14472;56.880;16.658;2023-07-22T14:26:56;19.40;1.00
26907;DHT22;14472;56.880;16.658;2023-07-22T14:29:24;19.40;1.00
26907;DHT22;14472;56.880;16.658;2023-07-22T14:31:51;19.40;1.00
26907;DHT22;14472;56.880;16.658;2023-07-22T14:34:17;19.50;1.00
26907;DHT22;14472;56.880;16.658;2023-07-22T14:36:44;19.60;1.00
26907;DHT22;14472;56.880;16.658;2023-07-22T14:39:10;19.60;1.00
26907;DHT22;14472;56.880;16.658;2023-07-22T14:41:35;19.60;1.00
26907;DHT22;14472;56.880;16.658;2023-07-22T14:44:01;19.60;1.00
26907;DHT22;14472;56.880;16.658;2023-07-22T14:46:27;19.70;1.00
26907;DHT22;14472;56.880;16.658;2023-07-22T14:48:53;19.80;1.00
26907;DHT22;14472;56.880;16.658;2023-07-22T14:51:19;19.80;1.00
26907;DHT22;14472;56.880;16.658;2023-07-22T14:53:44;19.80;1.00
26907;DHT22;14472;56.880;16.658;2023-07-22T14:56:11;19.90;1.00
26907;DHT22;14472;56.880;16.658;2023-07-22T14:58:37;19.80;1.00
26907;DHT22;14472;56.880;16.658;2023-07-22T15:01:02;19.80;1.00
26907;DHT22;14472;56.880;16.658;2023-07-22T15:03:29;19.70;1.00
26907;DHT22;14472;56.880;16.658;2023-07-22T15:05:55;19.60;1.00
26907;DHT22;14472;56.880;16.658;2023-07-22T15:08:20;19.60;1.00
26907;DHT22;14472;56.880;16.658;2023-07-22T15:10:46;19.50;1.00
26907;DHT22;14472;56.880;16.658;2023-07-22T15:13:12;19.40;1.00
26907;DHT22;14472;56.880;16.658;2023-07-22T15:15:38;19.30;1.00
26907;DHT22;14472;56.880;16.658;2023-07-22T15:18:03;19.20;1.00
26907;DHT22;14472;56.880;16.658;2023-07-22T15:20:29;19.10;1.00
26907;DHT22;14472;56.880;16.658;2023-07-22T15:22:55;19.10;1.00
26907;DHT22;14472;56.880;16.658;2023-07-22T15:25:20;19.00;1.00
26907;DHT22;14472;56.880;16.658;2023-07-22T15:27:46;19.00;1.00
26907;DHT22;14472;56.880;16.658;2023-07-22T15:30:12;19.00;1.00
26907;DHT22;14472;56.880;16.658;2023-07-22T15:32:38;18.90;1.00
26907;DHT22;14472;56.880;16.658;2023-07-22T15:35:04;18.90;1.00
26907;DHT22;14472;56.880;16.658;2023-07-22T15:37:30;18.90;1.00
26907;DHT22;14472;56.880;16.658;2023-07-22T15:39:56;18.80;1.00
26907;DHT22;14472;56.880;16.658;2023-07-22T15:42:22;18.80;1.00
26907;DHT22;14472;56.880;16.658;2023-07-22T15:44:47;18.80;1.00
26907;DHT22;14472;56.880;16.658;2023-07-22T15:47:13;18.80;1.00
26907;DHT22;14472;56.880;16.658;2023-07-22T15:49:39;18.80;1.00
26907;DHT22;14472;56.880;16.658;2023-07-22T15:52:05;18.80;1.00